createdAt,value
2023-02-22T00:00:33.707Z,998.46
2023-02-22T00:01:33.662Z,998.53
2023-02-22T00:02:33.664Z,998.52
2023-02-22T00:03:33.649Z,998.46
2023-02-22T00:04:33.641Z,998.46
2023-02-22T00:05:33.627Z,998.42
2023-02-22T00:06:33.642Z,998.35
2023-02-22T00:07:33.599Z,998.42
2023-02-22T00:08:33.595Z,998.42
2023-02-22T00:09:33.591Z,998.42
2023-02-22T00:10:33.579Z,998.50
2023-02-22T00:11:33.563Z,998.46
2023-02-22T00:12:33.578Z,998.42
2023-02-22T00:13:33.547Z,998.38
2023-02-22T00:14:33.544Z,998.47
2023-02-22T00:15:33.508Z,998.37
2023-02-22T00:16:33.595Z,998.46
2023-02-22T00:17:33.498Z,998.48
2023-02-22T00:18:33.491Z,998.43
2023-02-22T00:19:33.469Z,998.42
2023-02-22T00:20:33.459Z,998.41
2023-02-22T00:21:33.438Z,998.47
2023-02-22T00:22:33.432Z,998.48
2023-02-22T00:23:33.449Z,998.41
2023-02-22T00:24:33.435Z,998.42
2023-02-22T00:25:33.409Z,998.38
2023-02-22T00:26:33.416Z,998.40
2023-02-22T00:27:33.389Z,998.39
2023-02-22T00:28:33.367Z,998.38
2023-02-22T00:29:33.387Z,998.40
2023-02-22T00:30:33.414Z,998.38
2023-02-22T00:31:33.451Z,998.32
2023-02-22T00:32:33.363Z,998.35
2023-02-22T00:33:33.330Z,998.34
2023-02-22T00:34:33.303Z,998.33
2023-02-22T00:35:33.315Z,998.34
2023-02-22T00:36:33.288Z,998.31
2023-02-22T00:37:33.256Z,998.32
2023-02-22T00:38:33.268Z,998.35
2023-02-22T00:39:33.247Z,998.34
2023-02-22T00:40:33.256Z,998.34
2023-02-22T00:41:33.274Z,998.28
2023-02-22T00:42:33.218Z,998.30
2023-02-22T00:43:33.207Z,998.28
2023-02-22T00:44:33.189Z,998.25
2023-02-22T00:45:33.233Z,998.27
2023-02-22T00:46:33.196Z,998.25
2023-02-22T00:47:33.202Z,998.24
2023-02-22T00:48:33.164Z,998.25
2023-02-22T00:49:33.141Z,998.25
2023-02-22T00:50:33.115Z,998.27
2023-02-22T00:51:33.104Z,998.22
2023-02-22T00:52:33.130Z,998.24
2023-02-22T00:53:33.084Z,998.22
2023-02-22T00:54:33.073Z,998.26
2023-02-22T00:55:33.068Z,998.22
2023-02-22T00:56:33.056Z,998.21
2023-02-22T00:57:33.044Z,998.24
2023-02-22T00:58:33.054Z,998.21
2023-02-22T00:59:33.021Z,998.26
2023-02-22T01:00:33.022Z,998.27
2023-02-22T01:01:33.060Z,998.26
2023-02-22T01:02:33.035Z,998.19
2023-02-22T01:03:33.095Z,998.19
2023-02-22T01:04:32.996Z,998.18
2023-02-22T01:05:32.944Z,998.21
2023-02-22T01:06:32.939Z,998.18
2023-02-22T01:07:32.923Z,998.12
2023-02-22T01:08:32.913Z,998.18
2023-02-22T01:09:32.914Z,998.13
2023-02-22T01:10:32.896Z,998.15
2023-02-22T01:11:32.880Z,998.16
2023-02-22T01:12:32.874Z,998.13
2023-02-22T01:13:32.868Z,998.14
2023-02-22T01:14:32.873Z,998.13
2023-02-22T01:15:32.842Z,998.16
2023-02-22T01:16:32.863Z,998.14
2023-02-22T01:17:32.821Z,998.13
2023-02-22T01:18:32.812Z,998.15
2023-02-22T01:19:32.802Z,998.16
2023-02-22T01:20:32.801Z,998.05
2023-02-22T01:21:32.780Z,998.08
2023-02-22T01:22:32.751Z,998.03
2023-02-22T01:23:32.847Z,998.08
2023-02-22T01:24:32.746Z,998.03
2023-02-22T01:25:32.734Z,998.06
2023-02-22T01:26:32.731Z,998.06
2023-02-22T01:27:32.708Z,998.06
2023-02-22T01:28:32.685Z,998.05
2023-02-22T01:29:32.681Z,998.04
2023-02-22T01:30:32.804Z,998.02
2023-02-22T01:31:32.733Z,998.04
2023-02-22T01:32:32.659Z,998.03
2023-02-22T01:33:32.647Z,998.01
2023-02-22T01:34:32.631Z,998.01
2023-02-22T01:35:32.617Z,997.99
2023-02-22T01:36:32.598Z,998.00
2023-02-22T01:37:32.590Z,997.94
2023-02-22T01:38:32.592Z,997.98
2023-02-22T01:39:32.582Z,998.00
2023-02-22T01:40:32.551Z,997.95
2023-02-22T01:41:32.542Z,997.94
2023-02-22T01:42:32.526Z,997.89
2023-02-22T01:43:32.566Z,997.96
2023-02-22T01:44:32.531Z,997.92
2023-02-22T01:45:32.520Z,997.90
2023-02-22T01:46:32.484Z,997.89
2023-02-22T01:47:32.476Z,997.92
2023-02-22T01:48:32.468Z,997.89
2023-02-22T01:49:32.498Z,997.86
2023-02-22T01:50:32.441Z,997.80
2023-02-22T01:51:32.432Z,997.86
2023-02-22T01:52:32.434Z,997.81
2023-02-22T01:53:32.408Z,997.79
2023-02-22T01:54:32.401Z,997.83
2023-02-22T01:55:32.427Z,997.84
2023-02-22T01:56:32.376Z,997.82
2023-02-22T01:57:32.365Z,997.78
2023-02-22T01:58:32.355Z,997.76
2023-02-22T01:59:32.343Z,997.76
2023-02-22T02:00:32.318Z,997.77
2023-02-22T02:01:32.334Z,997.75
2023-02-22T02:02:32.306Z,997.74
2023-02-22T02:03:32.291Z,997.75
2023-02-22T02:04:32.280Z,997.72
2023-02-22T02:05:32.272Z,997.75
2023-02-22T02:06:32.269Z,997.72
2023-02-22T02:07:32.254Z,997.76
2023-02-22T02:08:32.245Z,997.71
2023-02-22T02:09:32.219Z,997.66
2023-02-22T02:10:32.226Z,997.66
2023-02-22T02:11:32.223Z,997.69
2023-02-22T02:12:32.233Z,997.69
2023-02-22T02:13:32.171Z,997.63
2023-02-22T02:14:32.202Z,997.64
2023-02-22T02:15:32.173Z,997.64
2023-02-22T02:16:32.185Z,997.65
2023-02-22T02:17:32.141Z,997.58
2023-02-22T02:18:32.166Z,997.60
2023-02-22T02:19:32.115Z,997.59
2023-02-22T02:20:32.112Z,997.58
2023-02-22T02:21:32.132Z,997.60
2023-02-22T02:22:32.099Z,997.62
2023-02-22T02:23:39.133Z,997.63
2023-02-22T02:24:32.053Z,997.58
2023-02-22T02:25:32.044Z,997.59
2023-02-22T02:26:32.033Z,997.57
2023-02-22T02:27:32.022Z,997.54
2023-02-22T02:28:32.011Z,997.56
2023-02-22T02:29:32.013Z,997.50
2023-02-22T02:30:32.014Z,997.53
2023-02-22T02:31:32.019Z,997.51
2023-02-22T02:32:32.011Z,997.50
2023-02-22T02:33:31.953Z,997.48
2023-02-22T02:34:31.946Z,997.49
2023-02-22T02:35:31.942Z,997.48
2023-02-22T02:36:31.913Z,997.47
2023-02-22T02:37:31.911Z,997.49
2023-02-22T02:38:31.940Z,997.44
2023-02-22T02:39:31.883Z,997.42
2023-02-22T02:40:31.916Z,997.40
2023-02-22T02:41:31.861Z,997.40
2023-02-22T02:42:31.852Z,997.39
2023-02-22T02:43:31.846Z,997.38
2023-02-22T02:44:31.824Z,997.39
2023-02-22T02:45:31.825Z,997.35
2023-02-22T02:46:31.828Z,997.35
2023-02-22T02:47:31.859Z,997.39
2023-02-22T02:48:31.781Z,997.37
2023-02-22T02:49:31.771Z,997.37
2023-02-22T02:50:31.762Z,997.34
2023-02-22T02:51:31.760Z,997.31
2023-02-22T02:52:31.763Z,997.35
2023-02-22T02:53:31.731Z,997.31
2023-02-22T02:54:31.714Z,997.33
2023-02-22T02:55:31.719Z,997.31
2023-02-22T02:56:31.691Z,997.27
2023-02-22T02:57:31.689Z,997.27
2023-02-22T02:58:31.704Z,997.26
2023-02-22T02:59:31.662Z,997.18
2023-02-22T03:00:31.649Z,997.24
2023-02-22T03:01:31.678Z,997.19
2023-02-22T03:02:31.623Z,997.22
2023-02-22T03:03:31.631Z,997.24
2023-02-22T03:04:31.620Z,997.18
2023-02-22T03:05:31.600Z,997.24
2023-02-22T03:06:31.601Z,997.20
2023-02-22T03:07:31.613Z,997.20
2023-02-22T03:08:31.560Z,997.15
2023-02-22T03:09:31.551Z,997.20
2023-02-22T03:10:31.566Z,997.18
2023-02-22T03:11:31.535Z,997.19
2023-02-22T03:12:31.512Z,997.16
2023-02-22T03:13:31.511Z,997.19
2023-02-22T03:14:31.490Z,997.24
2023-02-22T03:15:31.480Z,997.15
2023-02-22T03:16:31.516Z,997.19
2023-02-22T03:17:31.461Z,997.16
2023-02-22T03:18:31.450Z,997.13
2023-02-22T03:19:31.444Z,997.17
2023-02-22T03:20:31.425Z,997.22
2023-02-22T03:21:31.421Z,997.17
2023-02-22T03:22:31.416Z,997.24
2023-02-22T03:23:31.393Z,997.17
2023-02-22T03:24:31.394Z,997.15
2023-02-22T03:25:31.372Z,997.18
2023-02-22T03:26:31.362Z,997.16
2023-02-22T03:27:31.360Z,997.17
2023-02-22T03:28:31.333Z,997.09
2023-02-22T03:29:31.330Z,997.12
2023-02-22T03:30:31.338Z,997.11
2023-02-22T03:31:31.398Z,997.10
2023-02-22T03:32:31.296Z,997.18
2023-02-22T03:33:31.305Z,997.12
2023-02-22T03:34:31.270Z,997.19
2023-02-22T03:35:31.267Z,997.11
2023-02-22T03:36:31.252Z,997.19
2023-02-22T03:37:31.240Z,997.20
2023-02-22T03:38:31.222Z,997.17
2023-02-22T03:39:31.345Z,997.15
2023-02-22T03:40:31.200Z,997.14
2023-02-22T03:41:31.202Z,997.13
2023-02-22T03:42:31.204Z,997.10
2023-02-22T03:43:31.174Z,997.14
2023-02-22T03:44:31.185Z,997.14
2023-02-22T03:45:31.160Z,997.06
2023-02-22T03:46:31.166Z,997.14
2023-02-22T03:47:31.130Z,997.11
2023-02-22T03:48:31.111Z,997.10
2023-02-22T03:49:31.110Z,997.11
2023-02-22T03:50:31.111Z,997.10
2023-02-22T03:51:31.080Z,997.08
2023-02-22T03:52:31.076Z,997.11
2023-02-22T03:53:31.060Z,997.09
2023-02-22T03:54:31.048Z,997.03
2023-02-22T03:55:31.040Z,997.08
2023-02-22T03:56:31.709Z,997.00
2023-02-22T03:57:31.011Z,997.00
2023-02-22T03:58:30.998Z,997.03
2023-02-22T03:59:30.988Z,997.07
2023-02-22T04:00:30.980Z,996.99
2023-02-22T04:01:30.973Z,997.02
2023-02-22T04:02:30.983Z,997.03
2023-02-22T04:03:30.948Z,997.03
2023-02-22T04:04:31.002Z,997.06
2023-02-22T04:05:30.928Z,997.02
2023-02-22T04:06:30.908Z,997.02
2023-02-22T04:07:30.908Z,997.05
2023-02-22T04:08:30.917Z,997.00
2023-02-22T04:09:30.891Z,997.09
2023-02-22T04:10:30.884Z,997.05
2023-02-22T04:11:30.858Z,997.07
2023-02-22T04:12:30.850Z,997.05
2023-02-22T04:13:30.840Z,997.09
2023-02-22T04:14:30.849Z,997.00
2023-02-22T04:15:30.810Z,997.05
2023-02-22T04:16:30.797Z,996.99
2023-02-22T04:17:30.793Z,996.99
2023-02-22T04:18:30.782Z,997.00
2023-02-22T04:19:30.788Z,997.00
2023-02-22T04:20:30.756Z,996.95
2023-02-22T04:21:30.750Z,996.97
2023-02-22T04:22:30.737Z,996.99
2023-02-22T04:23:30.732Z,996.99
2023-02-22T04:24:30.768Z,996.99
2023-02-22T04:25:30.726Z,996.94
2023-02-22T04:26:30.692Z,996.99
2023-02-22T04:27:30.676Z,996.97
2023-02-22T04:28:30.666Z,996.91
2023-02-22T04:29:30.656Z,996.93
2023-02-22T04:30:30.658Z,996.94
2023-02-22T04:31:30.674Z,996.93
2023-02-22T04:32:30.626Z,996.99
2023-02-22T04:33:30.614Z,996.94
2023-02-22T04:34:30.607Z,996.94
2023-02-22T04:35:30.594Z,996.92
2023-02-22T04:36:30.595Z,996.91
2023-02-22T04:37:30.565Z,996.94
2023-02-22T04:38:30.554Z,996.94
2023-02-22T04:39:30.566Z,996.91
2023-02-22T04:40:30.535Z,996.87
2023-02-22T04:41:30.524Z,996.91
2023-02-22T04:42:30.525Z,996.88
2023-02-22T04:43:30.502Z,996.91
2023-02-22T04:44:30.484Z,996.90
2023-02-22T04:45:30.477Z,996.92
2023-02-22T04:46:30.475Z,996.88
2023-02-22T04:47:30.456Z,996.94
2023-02-22T04:48:30.484Z,996.92
2023-02-22T04:49:30.435Z,996.89
2023-02-22T04:50:30.422Z,996.85
2023-02-22T04:51:30.415Z,996.84
2023-02-22T04:52:30.408Z,996.87
2023-02-22T04:53:30.394Z,996.85
2023-02-22T04:54:30.393Z,996.87
2023-02-22T04:55:30.373Z,996.88
2023-02-22T04:56:30.352Z,996.87
2023-02-22T04:57:30.343Z,996.87
2023-02-22T04:58:30.335Z,996.83
2023-02-22T04:59:30.322Z,996.89
2023-02-22T05:00:30.323Z,996.89
2023-02-22T05:01:30.303Z,996.84
2023-02-22T05:02:30.346Z,996.90
2023-02-22T05:03:30.273Z,996.89
2023-02-22T05:04:30.288Z,996.86
2023-02-22T05:05:30.273Z,996.83
2023-02-22T05:06:30.247Z,996.84
2023-02-22T05:07:30.231Z,996.81
2023-02-22T05:08:30.222Z,996.81
2023-02-22T05:09:30.211Z,996.78
2023-02-22T05:10:30.197Z,996.82
2023-02-22T05:11:30.199Z,996.87
2023-02-22T05:12:30.172Z,996.80
2023-02-22T05:13:30.171Z,996.79
2023-02-22T05:14:30.150Z,996.76
2023-02-22T05:15:30.140Z,996.79
2023-02-22T05:16:30.131Z,996.80
2023-02-22T05:17:30.136Z,996.79
2023-02-22T05:18:30.102Z,996.81
2023-02-22T05:19:30.102Z,996.84
2023-02-22T05:20:30.093Z,996.82
2023-02-22T05:21:30.075Z,996.80
2023-02-22T05:22:30.080Z,996.85
2023-02-22T05:23:30.050Z,996.80
2023-02-22T05:24:30.043Z,996.78
2023-02-22T05:25:30.033Z,996.77
2023-02-22T05:26:30.022Z,996.83
2023-02-22T05:27:30.009Z,996.80
2023-02-22T05:28:30.013Z,996.76
2023-02-22T05:29:29.980Z,996.80
2023-02-22T05:30:30.133Z,996.77
2023-02-22T05:31:30.084Z,996.77
2023-02-22T05:32:29.968Z,996.76
2023-02-22T05:33:29.966Z,996.74
2023-02-22T05:34:29.938Z,996.76
2023-02-22T05:35:29.925Z,996.72
2023-02-22T05:36:29.909Z,996.76
2023-02-22T05:37:29.895Z,996.76
2023-02-22T05:38:29.900Z,996.77
2023-02-22T05:39:29.890Z,996.79
2023-02-22T05:40:29.873Z,996.71
2023-02-22T05:41:29.852Z,996.72
2023-02-22T05:42:29.840Z,996.69
2023-02-22T05:43:29.831Z,996.72
2023-02-22T05:44:29.820Z,996.69
2023-02-22T05:45:29.827Z,996.74
2023-02-22T05:46:29.824Z,996.68
2023-02-22T05:47:30.552Z,996.65
2023-02-22T05:48:29.778Z,996.71
2023-02-22T05:49:29.763Z,996.72
2023-02-22T05:50:29.748Z,996.67
2023-02-22T05:51:29.753Z,996.71
2023-02-22T05:52:29.731Z,996.67
2023-02-22T05:53:29.718Z,996.67
2023-02-22T05:54:29.708Z,996.72
2023-02-22T05:55:29.701Z,996.70
2023-02-22T05:56:29.710Z,996.72
2023-02-22T05:57:29.689Z,996.71
2023-02-22T05:58:29.709Z,996.73
2023-02-22T05:59:29.656Z,996.74
2023-02-22T06:00:29.635Z,996.70
2023-02-22T06:01:29.626Z,996.72
2023-02-22T06:02:29.658Z,996.68
2023-02-22T06:03:29.599Z,996.75
2023-02-22T06:04:29.586Z,996.76
2023-02-22T06:05:29.615Z,996.68
2023-02-22T06:06:29.593Z,996.71
2023-02-22T06:07:29.592Z,996.73
2023-02-22T06:08:29.546Z,996.70
2023-02-22T06:09:29.525Z,996.69
2023-02-22T06:10:29.529Z,996.67
2023-02-22T06:11:29.506Z,996.72
2023-02-22T06:12:29.501Z,996.74
2023-02-22T06:13:29.504Z,996.73
2023-02-22T06:14:29.483Z,996.73
2023-02-22T06:15:29.469Z,996.66
2023-02-22T06:16:29.563Z,996.67
2023-02-22T06:17:29.443Z,996.68
2023-02-22T06:18:29.445Z,996.67
2023-02-22T06:19:29.432Z,996.67
2023-02-22T06:20:29.421Z,996.67
2023-02-22T06:21:29.396Z,996.64
2023-02-22T06:22:29.389Z,996.74
2023-02-22T06:23:29.372Z,996.70
2023-02-22T06:24:29.388Z,996.68
2023-02-22T06:25:29.354Z,996.70
2023-02-22T06:26:29.346Z,996.71
2023-02-22T06:27:29.322Z,996.64
2023-02-22T06:28:29.320Z,996.66
2023-02-22T06:29:29.302Z,996.63
2023-02-22T06:30:29.389Z,996.66
2023-02-22T06:31:29.292Z,996.70
2023-02-22T06:32:29.306Z,996.69
2023-02-22T06:33:29.262Z,996.66
2023-02-22T06:34:29.251Z,996.58
2023-02-22T06:35:29.251Z,996.73
2023-02-22T06:36:29.231Z,996.65
2023-02-22T06:37:29.220Z,996.67
2023-02-22T06:38:29.201Z,996.67
2023-02-22T06:39:29.190Z,996.70
2023-02-22T06:40:29.185Z,996.75
2023-02-22T06:41:29.190Z,996.72
2023-02-22T06:42:29.216Z,996.69
2023-02-22T06:43:29.150Z,996.80
2023-02-22T06:44:29.139Z,996.74
2023-02-22T06:45:29.180Z,996.81
2023-02-22T06:46:29.132Z,996.79
2023-02-22T06:47:29.129Z,996.78
2023-02-22T06:48:29.099Z,996.83
2023-02-22T06:49:29.079Z,996.77
2023-02-22T06:50:29.077Z,996.83
2023-02-22T06:51:29.058Z,996.83
2023-02-22T06:52:29.056Z,996.86
2023-02-22T06:53:29.700Z,996.85
2023-02-22T06:54:29.029Z,996.90
2023-02-22T06:55:29.017Z,996.88
2023-02-22T06:56:29.011Z,996.90
2023-02-22T06:57:28.988Z,996.87
2023-02-22T06:58:28.988Z,996.88
2023-02-22T06:59:28.986Z,996.87
2023-02-22T07:00:28.962Z,996.85
2023-02-22T07:01:28.959Z,996.90
2023-02-22T07:02:28.941Z,996.90
2023-02-22T07:03:28.945Z,996.90
2023-02-22T07:04:28.931Z,996.88
2023-02-22T07:05:28.945Z,996.90
2023-02-22T07:06:28.900Z,996.87
2023-02-22T07:07:28.885Z,996.93
2023-02-22T07:08:28.872Z,996.93
2023-02-22T07:09:28.871Z,996.95
2023-02-22T07:10:28.939Z,996.93
2023-02-22T07:11:28.850Z,996.96
2023-02-22T07:12:28.831Z,996.91
2023-02-22T07:13:28.819Z,997.00
2023-02-22T07:14:28.811Z,996.93
2023-02-22T07:15:28.793Z,996.95
2023-02-22T07:16:28.839Z,996.99
2023-02-22T07:17:28.774Z,996.98
2023-02-22T07:18:30.777Z,996.97
2023-02-22T07:19:28.756Z,996.94
2023-02-22T07:20:28.765Z,996.97
2023-02-22T07:21:28.748Z,996.92
2023-02-22T07:22:28.742Z,996.95
2023-02-22T07:23:28.715Z,996.94
2023-02-22T07:24:28.725Z,996.90
2023-02-22T07:25:28.697Z,996.93
2023-02-22T07:26:28.698Z,996.93
2023-02-22T07:27:28.662Z,996.90
2023-02-22T07:28:28.675Z,996.92
2023-02-22T07:29:28.652Z,996.95
2023-02-22T07:30:28.735Z,996.91
2023-02-22T07:31:29.713Z,996.89
2023-02-22T07:32:28.716Z,996.90
2023-02-22T07:33:28.602Z,996.89
2023-02-22T07:34:28.603Z,996.97
2023-02-22T07:35:28.619Z,996.87
2023-02-22T07:36:28.573Z,996.93
2023-02-22T07:37:28.572Z,996.92
2023-02-22T07:38:28.553Z,996.90
2023-02-22T07:39:28.565Z,996.84
2023-02-22T07:40:28.602Z,996.92
2023-02-22T07:41:28.522Z,996.90
2023-02-22T07:42:28.501Z,996.87
2023-02-22T07:43:28.496Z,996.90
2023-02-22T07:44:28.482Z,996.88
2023-02-22T07:45:28.515Z,996.85
2023-02-22T07:46:28.461Z,996.87
2023-02-22T07:47:28.452Z,996.92
2023-02-22T07:48:28.447Z,996.91
2023-02-22T07:49:28.432Z,996.84
2023-02-22T07:50:28.422Z,996.85
2023-02-22T07:51:28.421Z,996.85
2023-02-22T07:52:28.402Z,996.80
2023-02-22T07:53:28.928Z,996.77
2023-02-22T07:54:28.381Z,996.84
2023-02-22T07:55:28.371Z,996.82
2023-02-22T07:56:28.360Z,996.81
2023-02-22T07:57:28.353Z,996.86
2023-02-22T07:58:28.332Z,996.88
2023-02-22T07:59:28.325Z,996.87
2023-02-22T08:00:28.327Z,996.90
2023-02-22T08:01:28.300Z,996.86
2023-02-22T08:02:28.336Z,996.83
2023-02-22T08:03:28.321Z,996.88
2023-02-22T08:04:28.271Z,996.83
2023-02-22T08:05:28.251Z,996.74
2023-02-22T08:06:28.244Z,996.81
2023-02-22T08:07:28.241Z,996.83
2023-02-22T08:08:28.242Z,996.82
2023-02-22T08:09:28.221Z,996.78
2023-02-22T08:10:28.209Z,996.76
2023-02-22T08:11:28.193Z,996.82
2023-02-22T08:12:28.179Z,996.81
2023-02-22T08:13:28.175Z,996.82
2023-02-22T08:14:28.180Z,996.85
2023-02-22T08:15:28.152Z,996.82
2023-02-22T08:16:28.137Z,996.84
2023-02-22T08:17:28.120Z,996.81
2023-02-22T08:18:28.120Z,996.86
2023-02-22T08:19:28.090Z,996.85
2023-02-22T08:20:28.101Z,996.80
2023-02-22T08:21:28.070Z,996.79
2023-02-22T08:22:28.060Z,996.77
2023-02-22T08:23:28.060Z,996.78
2023-02-22T08:24:28.040Z,996.78
2023-02-22T08:25:28.054Z,996.74
2023-02-22T08:26:28.026Z,996.76
2023-02-22T08:27:28.012Z,996.76
2023-02-22T08:28:28.000Z,996.72
2023-02-22T08:29:27.980Z,996.76
2023-02-22T08:30:28.046Z,996.72
2023-02-22T08:31:28.061Z,996.76
2023-02-22T08:32:28.074Z,996.75
2023-02-22T08:33:28.038Z,996.78
2023-02-22T08:34:27.938Z,996.81
2023-02-22T08:35:27.918Z,996.81
2023-02-22T08:36:27.940Z,996.76
2023-02-22T08:37:27.919Z,996.80
2023-02-22T08:38:27.895Z,996.81
2023-02-22T08:39:34.929Z,996.85
2023-02-22T08:40:27.886Z,996.78
2023-02-22T08:41:27.849Z,996.80
2023-02-22T08:42:27.847Z,996.83
2023-02-22T08:43:27.850Z,996.74
2023-02-22T08:44:27.829Z,996.73
2023-02-22T08:45:27.810Z,996.77
2023-02-22T08:46:27.807Z,996.78
2023-02-22T08:47:27.787Z,996.76
2023-02-22T08:48:27.806Z,996.84
2023-02-22T08:49:27.786Z,996.74
2023-02-22T08:50:27.744Z,996.74
2023-02-22T08:51:27.960Z,996.77
2023-02-22T08:52:27.750Z,996.72
2023-02-22T08:53:27.833Z,996.75
2023-02-22T08:54:27.725Z,996.74
2023-02-22T08:55:27.772Z,996.73
2023-02-22T08:56:27.719Z,996.75
2023-02-22T08:57:27.689Z,996.66
2023-02-22T08:58:27.656Z,996.67
2023-02-22T08:59:27.685Z,996.67
2023-02-22T09:00:27.678Z,996.68
2023-02-22T09:01:33.005Z,996.64
2023-02-22T09:02:28.720Z,996.63
2023-02-22T09:03:27.651Z,996.63
2023-02-22T09:04:27.593Z,996.60
2023-02-22T09:05:28.417Z,996.60
2023-02-22T09:06:27.580Z,996.60
2023-02-22T09:07:27.656Z,996.61
2023-02-22T09:08:27.583Z,996.54
2023-02-22T09:09:27.544Z,996.56
2023-02-22T09:10:27.543Z,996.57
2023-02-22T09:11:27.510Z,996.54
2023-02-22T09:12:27.529Z,996.52
2023-02-22T09:13:27.490Z,996.47
2023-02-22T09:14:27.558Z,996.50
2023-02-22T09:15:27.482Z,996.51
2023-02-22T09:16:27.495Z,996.55
2023-02-22T09:17:27.462Z,996.50
2023-02-22T09:18:39.014Z,996.57
2023-02-22T09:19:28.523Z,996.55
2023-02-22T09:20:27.426Z,996.50
2023-02-22T09:21:27.420Z,996.52
2023-02-22T09:22:27.424Z,996.48
2023-02-22T09:23:27.373Z,996.46
2023-02-22T09:24:27.360Z,996.51
2023-02-22T09:25:27.388Z,996.50
2023-02-22T09:26:27.361Z,996.47
2023-02-22T09:27:27.381Z,996.47
2023-02-22T09:28:29.145Z,996.42
2023-02-22T09:29:27.311Z,996.45
2023-02-22T09:30:27.337Z,996.46
2023-02-22T09:31:27.362Z,996.46
2023-02-22T09:32:27.455Z,996.39
2023-02-22T09:33:27.323Z,996.45
2023-02-22T09:34:27.280Z,996.40
2023-02-22T09:35:27.696Z,996.36
2023-02-22T09:36:27.271Z,996.33
2023-02-22T09:37:27.211Z,996.41
2023-02-22T09:38:27.242Z,996.31
2023-02-22T09:39:27.284Z,996.32
2023-02-22T09:40:27.263Z,996.26
2023-02-22T09:41:27.180Z,996.29
2023-02-22T09:42:27.178Z,996.29
2023-02-22T09:43:27.203Z,996.28
2023-02-22T09:44:27.241Z,996.24
2023-02-22T09:45:27.204Z,996.24
2023-02-22T09:46:27.297Z,996.23
2023-02-22T09:47:27.422Z,996.27
2023-02-22T09:48:27.091Z,996.20
2023-02-22T09:49:27.174Z,996.22
2023-02-22T09:50:27.082Z,996.28
2023-02-22T09:51:27.082Z,996.21
2023-02-22T09:52:27.092Z,996.18
2023-02-22T09:53:27.059Z,996.15
2023-02-22T09:54:27.051Z,996.18
2023-02-22T09:55:27.130Z,996.17
2023-02-22T09:56:27.012Z,996.23
2023-02-22T09:57:27.072Z,996.17
2023-02-22T09:58:27.072Z,996.19
2023-02-22T09:59:27.031Z,996.19
2023-02-22T10:00:26.968Z,996.22
2023-02-22T10:01:27.035Z,996.22
2023-02-22T10:02:27.041Z,996.17
2023-02-22T10:03:26.948Z,996.21
2023-02-22T10:04:26.914Z,996.16
2023-02-22T10:05:26.969Z,996.21
2023-02-22T10:06:26.954Z,996.21
2023-02-22T10:07:26.995Z,996.21
2023-02-22T10:08:26.912Z,996.24
2023-02-22T10:09:26.871Z,996.19
2023-02-22T10:10:26.883Z,996.16
2023-02-22T10:11:26.844Z,996.18
2023-02-22T10:12:26.824Z,996.17
2023-02-22T10:13:26.820Z,996.17
2023-02-22T10:14:27.046Z,996.12
2023-02-22T10:15:26.793Z,996.14
2023-02-22T10:16:26.806Z,996.09
2023-02-22T10:17:26.791Z,996.12
2023-02-22T10:18:26.756Z,996.13
2023-02-22T10:19:26.746Z,996.07
2023-02-22T10:20:26.768Z,996.11
2023-02-22T10:21:26.724Z,996.12
2023-02-22T10:22:26.716Z,996.10
2023-02-22T10:23:26.707Z,996.10
2023-02-22T10:24:26.736Z,996.10
2023-02-22T10:25:26.734Z,996.10
2023-02-22T10:26:26.704Z,996.11
2023-02-22T10:27:26.667Z,996.04
2023-02-22T10:28:26.689Z,996.08
2023-02-22T10:29:26.694Z,996.07
2023-02-22T10:30:26.635Z,996.08
2023-02-22T10:31:26.686Z,996.10
2023-02-22T10:32:26.659Z,996.07
2023-02-22T10:33:26.662Z,996.04
2023-02-22T10:34:26.633Z,996.11
2023-02-22T10:35:26.597Z,996.03
2023-02-22T10:36:26.557Z,996.06
2023-02-22T10:37:26.629Z,996.03
2023-02-22T10:38:26.558Z,996.05
2023-02-22T10:39:26.549Z,996.12
2023-02-22T10:40:26.510Z,996.10
2023-02-22T10:41:26.509Z,996.14
2023-02-22T10:42:26.516Z,996.11
2023-02-22T10:43:26.510Z,996.08
2023-02-22T10:44:26.483Z,996.15
2023-02-22T10:45:26.479Z,996.15
2023-02-22T10:46:26.441Z,996.11
2023-02-22T10:47:26.430Z,996.16
2023-02-22T10:48:26.418Z,996.16
2023-02-22T10:49:26.432Z,996.16
2023-02-22T10:50:26.431Z,996.15
2023-02-22T10:51:26.398Z,996.16
2023-02-22T10:52:26.410Z,996.16
2023-02-22T10:53:26.438Z,996.12
2023-02-22T10:54:26.380Z,996.10
2023-02-22T10:55:26.373Z,996.14
2023-02-22T10:56:26.374Z,996.13
2023-02-22T10:57:26.335Z,996.14
2023-02-22T10:58:26.311Z,996.08
2023-02-22T10:59:26.310Z,996.09
2023-02-22T11:00:26.369Z,996.09
2023-02-22T11:01:26.350Z,996.10
2023-02-22T11:02:26.262Z,996.03
2023-02-22T11:03:26.383Z,996.01
2023-02-22T11:04:26.275Z,996.01
2023-02-22T11:05:26.239Z,995.99
2023-02-22T11:06:26.252Z,995.95
2023-02-22T11:07:26.211Z,995.97
2023-02-22T11:08:26.243Z,995.91
2023-02-22T11:09:26.227Z,995.92
2023-02-22T11:10:26.188Z,995.92
2023-02-22T11:11:26.221Z,995.96
2023-02-22T11:12:26.149Z,995.94
2023-02-22T11:13:26.158Z,995.95
2023-02-22T11:14:26.220Z,995.90
2023-02-22T11:15:26.121Z,995.85
2023-02-22T11:16:26.161Z,995.89
2023-02-22T11:17:26.126Z,995.90
2023-02-22T11:18:26.085Z,995.87
2023-02-22T11:19:26.115Z,995.80
2023-02-22T11:20:26.068Z,995.85
2023-02-22T11:21:26.171Z,995.84
2023-02-22T11:22:26.086Z,995.86
2023-02-22T11:23:26.074Z,995.83
2023-02-22T11:24:26.547Z,995.81
2023-02-22T11:25:26.107Z,995.81
2023-02-22T11:26:26.040Z,995.79
2023-02-22T11:27:26.004Z,995.76
2023-02-22T11:28:25.990Z,995.75
2023-02-22T11:29:25.975Z,995.72
2023-02-22T11:30:26.002Z,995.69
2023-02-22T11:31:26.039Z,995.69
2023-02-22T11:32:25.950Z,995.67
2023-02-22T11:33:25.977Z,995.64
2023-02-22T11:34:25.931Z,995.66
2023-02-22T11:35:25.963Z,995.60
2023-02-22T11:36:25.895Z,995.59
2023-02-22T11:37:25.891Z,995.60
2023-02-22T11:38:25.890Z,995.58
2023-02-22T11:39:26.040Z,995.57
2023-02-22T11:40:25.870Z,995.58
2023-02-22T11:41:25.871Z,995.56
2023-02-22T11:42:25.900Z,995.52
2023-02-22T11:43:25.877Z,995.50
2023-02-22T11:44:25.799Z,995.51
2023-02-22T11:45:25.820Z,995.46
2023-02-22T11:46:25.809Z,995.42
2023-02-22T11:47:25.796Z,995.41
2023-02-22T11:48:25.763Z,995.44
2023-02-22T11:49:25.741Z,995.36
2023-02-22T11:50:25.758Z,995.43
2023-02-22T11:51:25.825Z,995.36
2023-02-22T11:52:27.171Z,995.30
2023-02-22T11:53:25.705Z,995.39
2023-02-22T11:54:25.706Z,995.33
2023-02-22T11:55:41.262Z,995.27
2023-02-22T11:56:37.147Z,995.30
2023-02-22T11:57:26.726Z,995.31
2023-02-22T11:58:25.640Z,995.23
2023-02-22T11:59:25.667Z,995.30
2023-02-22T12:00:25.653Z,995.32
2023-02-22T12:01:25.634Z,995.30
2023-02-22T12:02:25.700Z,995.20
2023-02-22T12:03:28.297Z,995.22
2023-02-22T12:04:25.643Z,995.23
2023-02-22T12:05:25.559Z,995.26
2023-02-22T12:06:25.549Z,995.24
2023-02-22T12:07:25.555Z,995.25
2023-02-22T12:08:25.558Z,995.28
2023-02-22T12:09:25.540Z,995.19
2023-02-22T12:10:25.499Z,995.22
2023-02-22T12:11:25.502Z,995.26
2023-02-22T12:12:25.477Z,995.26
2023-02-22T12:13:25.506Z,995.28
2023-02-22T12:14:25.462Z,995.26
2023-02-22T12:15:25.482Z,995.24
2023-02-22T12:16:25.436Z,995.25
2023-02-22T12:17:25.442Z,995.28
2023-02-22T12:18:25.450Z,995.26
2023-02-22T12:19:25.484Z,995.22
2023-02-22T12:20:25.391Z,995.23
2023-02-22T12:21:25.369Z,995.21
2023-02-22T12:22:25.388Z,995.16
2023-02-22T12:23:25.370Z,995.16
2023-02-22T12:24:25.357Z,995.21
2023-02-22T12:25:25.358Z,995.14
2023-02-22T12:26:25.319Z,995.20
2023-02-22T12:27:25.348Z,995.10
2023-02-22T12:28:25.611Z,995.14